Airfield :
LOGIN :

Register | Disclaimer

   EN    FR    IT 

 










Legend :    VFR   Marginal VFR   IFR   Intensive IFR   Very Intensive IFR
Visi :
Ceiling :
>= 8 km
>= 3000ft
5 to 8 km
1000 to 3000 ft
1500m to 5 km
500 to 1000 ft
800 to 1500m
200 to 500 ft
< 800m
< 200 ft
Symbols :   Thunderstorms  Fog  Heavy snow  Heavy precipitations  Wind > 20 kt
SIGMETs :     Misc.  Thunderstorms  Icing  Turbulence  Mountain Waves  Volcanic Ashes






- Airport Elevation : 268 ft
- IATA code : BFS


EGAA - Belfast Aldergrove

CURRENT METAR :
  • 041620Z AUTO 24006KT 9999 -RA FEW031/// //////CB 17/15 Q1008

EXPIRED METARs :
  • 041550Z AUTO 28006KT 9999 -RA FEW021/// SCT043/// //////CB 16/15 Q1008 RERA RETSRA RETS
  • 041520Z AUTO 27015KT 230V290 9999 TS -DZ FEW022/// //////CB 19/13 Q1008 RETSUP
  • 041450Z AUTO 19008KT 150V220 9999 //////CB 20/13 Q1008
  • 041420Z AUTO 19008KT 150V240 9999 FEW036/// //////CB 20/12 Q1009
  • 041350Z AUTO 19008KT 140V220 9999 FEW036/// //////CB 20/12 Q1009

TAF AMD TAF EGAA
Valid from the 04 at 15:00 until the 05 at 12:00 UTC


041536Z 0415/0512 27015KT 9999 FEW020 SCT040
BECMG 0415/0419 17010KT
TEMPO 0415/0512 7000 SHRA
PROB40
TEMPO 0415/0424 3000 +SHRA +TSRA BKN014 BKN025CB
PROB30
TEMPO 0500/0512 BKN009
PROB40
TEMPO 0505/0512 4000 +SHRA +RA BKN014
BECMG 0506/0510 11010KT



MET'MAP, your aeronautical weather chart ! - Copyright ORBIFLY December 2007 - Disclaimer

ORBIFLY MET'MAP TEAM :

Programming & Development : Alexandra Zaïnal
Concept & original design : Baudouin d'Aumeries
Assistance for programming : Marc-Olivier Méhu
Technical & hardware support : Manuel Goepfert

Contact : metmap@orbifly.com




SOURCES & CREDITS :

   NOAA